Time;durP1;ratioP1;P1;durP2;ratioP2;P2;SDS_P1;SDS_P2;PMS_P1;PMS_P2;Temp;Humidity;BMP_temperature;BMP_pressure;BME280_temperature;BME280_humidity;BME280_pressure;Samples;Min_cycle;Max_cycle;Signal;HPM_P1;HPM_P2
2022/07/24 00:01:51;;;;;;;9.20;4.88;;;23.10;85.70;;;;;;6212242;28;20074;-78
2022/07/24 00:04:56;;;;;;;5.18;4.03;;;23.10;86.00;;;;;;6208551;28;20421;-78
2022/07/24 00:07:58;;;;;;;6.63;4.38;;;23.10;86.50;;;;;;6209612;28;20082;-78
2022/07/24 00:10:59;;;;;;;6.32;4.20;;;23.00;87.10;;;;;;6209471;28;20050;-78
2022/07/24 00:14:01;;;;;;;6.65;4.78;;;22.90;87.70;;;;;;6203307;28;20426;-78
2022/07/24 00:17:03;;;;;;;7.75;4.70;;;22.80;88.00;;;;;;6207107;28;20380;-77
2022/07/24 00:20:09;;;;;;;8.02;4.95;;;22.70;88.30;;;;;;6211976;28;20520;-78
2022/07/24 00:23:10;;;;;;;8.30;5.10;;;22.70;88.60;;;;;;6213167;28;20052;-78
2022/07/24 00:26:12;;;;;;;5.32;4.65;;;22.60;88.90;;;;;;6215972;28;20052;-78
2022/07/24 00:29:14;;;;;;;7.32;4.57;;;22.60;89.40;;;;;;6215613;28;20046;-78
2022/07/24 00:32:16;;;;;;;8.48;5.50;;;22.50;89.90;;;;;;6214710;28;20050;-78
2022/07/24 00:35:19;;;;;;;5.78;4.43;;;22.50;90.20;;;;;;6214397;28;20046;-78
2022/07/24 00:38:21;;;;;;;5.18;4.53;;;22.40;90.30;;;;;;6212227;28;20050;-78
2022/07/24 00:41:22;;;;;;;8.00;5.38;;;22.30;90.50;;;;;;6211264;28;20054;-79
2022/07/24 00:44:24;;;;;;;7.35;4.95;;;22.20;90.60;;;;;;6208844;28;20060;-78
2022/07/24 00:47:26;;;;;;;7.88;4.90;;;22.10;90.70;;;;;;6210757;28;20046;-78
2022/07/24 00:50:29;;;;;;;6.68;4.65;;;22.00;90.90;;;;;;6209604;28;20043;-78
2022/07/24 00:53:31;;;;;;;10.63;5.45;;;22.00;91.10;;;;;;6210607;28;20069;-78
2022/07/24 00:56:33;;;;;;;5.43;4.40;;;22.00;91.60;;;;;;6209508;28;20046;-78
2022/07/24 00:59:34;;;;;;;10.38;5.15;;;21.90;91.40;;;;;;6204581;28;20092;-78
2022/07/24 01:02:40;;;;;;;6.07;5.15;;;21.90;91.40;;;;;;6201577;28;20046;-78
2022/07/24 01:05:44;;;;;;;6.95;4.90;;;21.80;91.50;;;;;;6201171;28;20436;-78
2022/07/24 01:08:46;;;;;;;8.07;4.97;;;21.80;91.60;;;;;;6205191;28;20051;-78
2022/07/24 01:11:49;;;;;;;7.30;5.03;;;21.80;91.70;;;;;;6203419;28;20054;-77
2022/07/24 01:14:50;;;;;;;6.50;4.93;;;21.70;91.80;;;;;;6206400;28;20050;-78
2022/07/24 01:17:52;;;;;;;7.95;4.85;;;21.70;91.90;;;;;;6207478;28;20670;-78
2022/07/24 01:20:56;;;;;;;9.20;5.65;;;21.60;92.20;;;;;;6217064;28;20050;-78
2022/07/24 01:23:58;;;;;;;8.30;4.88;;;21.50;92.40;;;;;;6217569;28;20051;-78
2022/07/24 01:26:59;;;;;;;7.55;5.05;;;21.40;92.50;;;;;;6215707;28;20076;-78
2022/07/24 01:30:01;;;;;;;7.50;4.50;;;21.40;92.60;;;;;;6208829;28;20608;-78
2022/07/24 01:33:03;;;;;;;5.63;4.13;;;21.40;92.70;;;;;;6209558;28;20079;-78
2022/07/24 01:36:07;;;;;;;7.22;4.50;;;21.40;92.70;;;;;;6209418;28;20054;-78
2022/07/24 01:39:09;;;;;;;8.32;4.72;;;21.30;92.80;;;;;;6209513;28;20050;-78
2022/07/24 01:42:10;;;;;;;6.15;4.80;;;21.30;92.80;;;;;;6208991;28;20056;-78
2022/07/24 01:45:12;;;;;;;5.72;4.80;;;21.30;92.80;;;;;;6208667;28;20050;-78
2022/07/24 01:48:14;;;;;;;7.95;5.57;;;21.30;93.00;;;;;;6209428;28;20092;-78
2022/07/24 01:51:17;;;;;;;6.80;5.57;;;21.30;92.80;;;;;;6212578;28;20601;-78
2022/07/24 01:54:19;;;;;;;8.80;5.10;;;21.20;92.90;;;;;;6211494;28;20069;-78
2022/07/24 01:57:21;;;;;;;11.00;6.03;;;21.20;93.10;;;;;;6211487;28;20046;-78
2022/07/24 02:00:22;;;;;;;5.93;5.00;;;21.20;93.10;;;;;;6219535;28;20056;-77
2022/07/24 02:03:24;;;;;;;7.65;5.95;;;21.20;93.10;;;;;;6217926;28;20046;-77
2022/07/24 02:06:27;;;;;;;8.13;5.45;;;21.10;93.30;;;;;;6212788;28;20050;-77
2022/07/24 02:09:29;;;;;;;5.18;4.43;;;21.10;93.50;;;;;;6214011;28;20500;-78
2022/07/24 02:12:31;;;;;;;9.07;5.40;;;21.00;93.60;;;;;;6213370;28;20105;-78
2022/07/24 02:15:33;;;;;;;5.35;4.70;;;21.00;93.60;;;;;;6219365;28;20043;-78
2022/07/24 02:18:35;;;;;;;6.70;4.93;;;20.90;93.70;;;;;;6219858;28;20053;-78
2022/07/24 02:21:38;;;;;;;9.48;5.45;;;20.80;93.80;;;;;;6218576;28;20061;-78
2022/07/24 02:24:40;;;;;;;7.18;4.85;;;20.70;94.10;;;;;;6215291;28;20052;-77
2022/07/24 02:27:42;;;;;;;8.23;5.22;;;20.60;94.40;;;;;;6208819;28;20065;-78
2022/07/24 02:30:44;;;;;;;6.28;4.65;;;20.50;94.60;;;;;;6207179;28;20053;-78
2022/07/24 02:33:46;;;;;;;11.70;6.22;;;20.50;94.80;;;;;;6206053;28;20046;-78
2022/07/24 02:36:49;;;;;;;6.85;5.60;;;20.50;94.90;;;;;;6213454;28;20110;-78
2022/07/24 02:39:51;;;;;;;9.73;5.57;;;20.30;94.90;;;;;;6213111;28;20412;-78
2022/07/24 02:42:52;;;;;;;6.13;5.00;;;20.30;95.10;;;;;;6208935;28;20062;-78
2022/07/24 02:45:54;;;;;;;8.15;5.45;;;20.20;95.40;;;;;;6208365;28;20046;-78
2022/07/24 02:48:56;;;;;;;10.77;5.45;;;20.10;95.50;;;;;;6210366;28;20080;-78
2022/07/24 02:51:59;;;;;;;7.00;5.30;;;20.00;95.70;;;;;;6210207;28;20527;-78
2022/07/24 02:55:01;;;;;;;5.80;4.78;;;20.00;96.00;;;;;;6208971;28;20046;-78
2022/07/24 02:58:03;;;;;;;6.45;5.45;;;19.90;96.00;;;;;;6206627;28;20062;-77
2022/07/24 03:01:05;;;;;;;5.60;4.90;;;19.90;96.10;;;;;;6205737;28;20046;-78
2022/07/24 03:04:07;;;;;;;14.63;6.40;;;19.80;96.30;;;;;;6204269;28;20042;-78
2022/07/24 03:07:10;;;;;;;9.57;6.25;;;19.70;96.40;;;;;;6205097;28;20050;-77
2022/07/24 03:10:13;;;;;;;7.78;5.35;;;19.70;96.50;;;;;;6205121;28;20464;-78
2022/07/24 03:13:15;;;;;;;6.57;5.25;;;19.60;96.70;;;;;;6203731;28;20566;-77
2022/07/24 03:16:17;;;;;;;8.98;6.07;;;19.60;96.90;;;;;;6205173;28;20424;-78
2022/07/24 03:19:18;;;;;;;9.55;6.35;;;19.60;97.00;;;;;;6204364;28;20057;-78
2022/07/24 03:22:21;;;;;;;6.50;5.57;;;19.50;97.00;;;;;;6202478;28;20047;-77
2022/07/24 03:25:24;;;;;;;7.40;5.50;;;19.50;97.00;;;;;;6204779;28;20050;-78
2022/07/24 03:28:26;;;;;;;7.47;5.70;;;19.50;97.00;;;;;;6203797;28;20499;-78
2022/07/24 03:31:27;;;;;;;7.00;5.72;;;19.40;97.10;;;;;;6203840;28;20136;-77
2022/07/24 03:34:29;;;;;;;8.38;5.95;;;19.40;97.20;;;;;;6201235;28;20050;-77
2022/07/24 03:37:32;;;;;;;7.47;5.47;;;19.40;97.30;;;;;;6203037;28;20052;-78
2022/07/24 03:40:34;;;;;;;8.18;5.65;;;19.40;97.30;;;;;;6203456;28;20049;-77
2022/07/24 03:43:36;;;;;;;7.07;6.15;;;19.40;97.40;;;;;;6202665;28;20051;-77
2022/07/24 03:46:38;;;;;;;6.80;5.95;;;19.40;97.40;;;;;;6202513;28;20055;-77
2022/07/24 03:49:39;;;;;;;8.90;5.93;;;19.40;97.40;;;;;;6201424;28;20051;-77
2022/07/24 03:52:42;;;;;;;7.97;5.80;;;19.30;97.40;;;;;;6201518;28;20058;-77
2022/07/24 03:55:44;;;;;;;12.38;6.55;;;19.40;97.50;;;;;;6200844;28;20484;-77
2022/07/24 03:58:46;;;;;;;6.25;5.20;;;19.30;97.40;;;;;;6201226;28;20422;-77
2022/07/24 04:01:47;;;;;;;11.48;5.93;;;19.30;97.40;;;;;;6201258;28;20046;-77
2022/07/24 04:04:49;;;;;;;7.72;5.88;;;19.30;97.40;;;;;;6205943;28;20057;-77
2022/07/24 04:07:52;;;;;;;7.78;6.35;;;19.40;97.50;;;;;;6208607;28;20060;-77
2022/07/24 04:10:56;;;;;;;9.45;6.93;;;19.40;97.50;;;;;;6206836;28;20046;-77
2022/07/24 04:13:58;;;;;;;7.82;6.05;;;19.40;97.70;;;;;;6206227;28;20049;-77
2022/07/24 04:17:00;;;;;;;9.68;6.18;;;19.50;97.40;;;;;;6205287;28;20046;-77
2022/07/24 04:20:02;;;;;;;8.50;5.05;;;19.50;97.30;;;;;;6203624;28;20046;-77
2022/07/24 04:23:05;;;;;;;7.72;5.90;;;19.50;97.30;;;;;;6206403;28;20046;-78
2022/07/24 04:26:07;;;;;;;8.15;5.70;;;19.60;97.10;;;;;;6205189;28;20058;-78
2022/07/24 04:29:08;;;;;;;7.03;5.60;;;19.70;97.00;;;;;;6203838;28;20042;-77
2022/07/24 04:32:10;;;;;;;8.93;5.90;;;19.80;96.90;;;;;;6203304;28;20046;-77
2022/07/24 04:35:12;;;;;;;10.05;5.88;;;19.90;96.70;;;;;;6202030;28;20125;-77
2022/07/24 04:38:15;;;;;;;5.57;4.70;;;20.00;96.60;;;;;;6200816;28;20042;-77
2022/07/24 04:41:17;;;;;;;6.18;5.30;;;20.10;96.50;;;;;;6201884;28;20046;-77
2022/07/24 04:44:19;;;;;;;6.95;4.78;;;20.20;96.30;;;;;;6201839;28;20042;-78
2022/07/24 04:47:20;;;;;;;9.35;5.85;;;20.50;96.00;;;;;;6209950;28;20062;-77
2022/07/24 04:50:22;;;;;;;6.10;5.43;;;20.80;95.70;;;;;;6200050;28;20054;-77
2022/07/24 04:53:25;;;;;;;7.55;5.10;;;21.30;94.90;;;;;;6197632;28;20068;-77
2022/07/24 04:56:30;;;;;;;7.35;5.88;;;21.70;94.30;;;;;;6200809;28;20057;-77
2022/07/24 04:59:31;;;;;;;9.10;5.15;;;21.90;93.90;;;;;;6207814;28;20424;-78
2022/07/24 05:02:33;;;;;;;5.50;4.68;;;22.10;93.70;;;;;;6208897;28;20445;-77
2022/07/24 05:05:35;;;;;;;7.07;4.93;;;22.30;93.20;;;;;;6206243;28;20506;-77
2022/07/24 05:08:38;;;;;;;7.10;5.18;;;22.70;92.70;;;;;;6200249;28;20053;-77
2022/07/24 05:11:40;;;;;;;8.98;5.65;;;22.90;92.00;;;;;;6201777;28;20050;-77
2022/07/24 05:14:42;;;;;;;7.65;6.00;;;23.10;91.30;;;;;;6202055;28;20417;-77
2022/07/24 05:17:44;;;;;;;7.18;4.78;;;23.40;90.80;;;;;;6201720;28;20046;-77
2022/07/24 05:20:45;;;;;;;4.88;4.32;;;24.40;88.90;;;;;;6202055;28;20072;-78
2022/07/24 05:23:48;;;;;;;8.57;4.90;;;25.80;84.10;;;;;;6203898;28;20058;-77
2022/07/24 05:26:50;;;;;;;9.13;4.80;;;27.20;78.30;;;;;;6207163;28;20046;-78
2022/07/24 05:29:52;;;;;;;7.63;4.78;;;28.50;73.10;;;;;;6207369;28;20052;-77
2022/07/24 05:32:54;;;;;;;6.25;4.32;;;29.70;68.40;;;;;;6204456;28;20424;-77
2022/07/24 05:35:55;;;;;;;7.70;4.80;;;30.60;64.40;;;;;;6204096;28;20046;-78
2022/07/24 05:38:58;;;;;;;6.45;4.43;;;31.40;61.20;;;;;;6201621;28;20065;-78
2022/07/24 05:42:00;;;;;;;9.38;5.03;;;32.20;58.10;;;;;;6201715;28;20046;-78
2022/07/24 05:45:02;;;;;;;7.45;4.80;;;33.10;55.20;;;;;;6202281;28;20058;-78
2022/07/24 05:48:04;;;;;;;5.25;3.78;;;34.10;52.30;;;;;;6196869;28;20046;-78
2022/07/24 05:51:06;;;;;;;10.70;4.55;;;35.30;49.70;;;;;;6200846;28;20076;-79
2022/07/24 05:54:09;;;;;;;6.63;4.55;;;36.30;47.20;;;;;;6202580;28;20061;-80
2022/07/24 05:57:11;;;;;;;5.18;4.07;;;37.10;45.00;;;;;;6203102;28;20065;-80
2022/07/24 06:00:13;;;;;;;4.22;3.53;;;37.90;43.60;;;;;;6202525;28;20058;-79
2022/07/24 06:03:15;;;;;;;5.80;4.07;;;38.60;42.00;;;;;;6203908;28;20370;-78
2022/07/24 06:06:17;;;;;;;6.43;4.03;;;39.40;40.80;;;;;;6205603;28;20062;-79
2022/07/24 06:09:20;;;;;;;5.30;3.97;;;40.10;39.50;;;;;;6208029;28;20043;-79
2022/07/24 06:12:21;;;;;;;7.70;3.95;;;40.60;38.30;;;;;;6207589;28;20368;-78
2022/07/24 06:15:23;;;;;;;10.50;3.80;;;40.90;37.20;;;;;;6208467;28;20050;-79
2022/07/24 06:18:25;;;;;;;5.18;4.03;;;41.00;37.30;;;;;;6208800;28;20050;-79
2022/07/24 06:21:26;;;;;;;5.70;3.63;;;41.70;36.40;;;;;;6208051;28;20047;-77
2022/07/24 06:24:29;;;;;;;5.72;3.38;;;42.40;35.40;;;;;;6208674;28;20050;-80
2022/07/24 06:27:31;;;;;;;6.30;3.55;;;42.70;34.40;;;;;;6209321;28;20053;-80
2022/07/24 06:30:33;;;;;;;4.13;3.10;;;42.90;33.90;;;;;;6207532;28;20042;-80
2022/07/24 06:33:35;;;;;;;8.18;3.40;;;42.80;33.90;;;;;;6208334;28;20133;-79
2022/07/24 06:36:37;;;;;;;6.80;3.28;;;42.70;33.90;;;;;;6203332;28;20046;-78
2022/07/24 06:39:40;;;;;;;6.60;3.08;;;42.70;33.80;;;;;;6206294;28;20058;-79
2022/07/24 06:42:42;;;;;;;3.63;3.28;;;42.40;34.00;;;;;;6206472;28;20519;-78
2022/07/24 06:45:44;;;;;;;4.85;3.53;;;42.60;34.00;;;;;;6205545;28;20038;-80
2022/07/24 06:48:45;;;;;;;6.03;3.70;;;42.70;33.60;;;;;;6205220;28;20068;-80
2022/07/24 06:51:48;;;;;;;5.05;3.22;;;42.60;33.60;;;;;;6205197;28;20416;-79
2022/07/24 06:54:51;;;;;;;6.00;3.00;;;42.40;33.70;;;;;;6205549;28;20057;-79
2022/07/24 06:57:53;;;;;;;5.78;3.20;;;42.30;33.50;;;;;;6206190;28;20053;-79
2022/07/24 07:00:54;;;;;;;4.70;3.63;;;42.50;33.40;;;;;;6205214;28;20060;-78
2022/07/24 07:03:56;;;;;;;6.15;3.20;;;42.70;34.20;;;;;;6205893;28;20054;-79
2022/07/24 07:06:58;;;;;;;4.32;2.85;;;43.10;33.20;;;;;;6205342;28;20046;-80
2022/07/24 07:10:01;;;;;;;3.13;2.80;;;43.60;32.70;;;;;;6204818;28;20046;-80
2022/07/24 07:13:02;;;;;;;6.22;3.05;;;44.20;32.30;;;;;;6204682;28;20055;-78
2022/07/24 07:16:05;;;;;;;5.68;3.03;;;44.50;32.10;;;;;;6205345;28;20053;-80
2022/07/24 07:19:07;;;;;;;2.90;2.55;;;44.80;31.50;;;;;;6205639;28;20543;-79
2022/07/24 07:22:08;;;;;;;11.55;3.35;;;45.00;31.20;;;;;;6205823;28;20546;-79
2022/07/24 07:25:11;;;;;;;4.28;2.70;;;45.20;30.70;;;;;;6205363;28;20045;-80
2022/07/24 07:28:13;;;;;;;4.72;3.08;;;45.00;31.00;;;;;;6204869;28;20046;-78
2022/07/24 07:31:15;;;;;;;4.22;3.15;;;44.80;31.00;;;;;;6205616;28;20057;-79
2022/07/24 07:34:17;;;;;;;4.35;3.53;;;44.30;31.10;;;;;;6205057;28;20060;-80
2022/07/24 07:37:18;;;;;;;10.25;3.50;;;44.50;31.30;;;;;;6205529;28;20054;-79
2022/07/24 07:40:22;;;;;;;5.57;2.78;;;44.70;30.70;;;;;;6204450;28;20523;-80
2022/07/24 07:43:23;;;;;;;3.70;2.75;;;44.00;30.90;;;;;;6211478;28;20056;-78
2022/07/24 07:46:26;;;;;;;4.57;3.33;;;41.90;32.70;;;;;;6219442;28;20231;-80
2022/07/24 07:49:27;;;;;;;5.50;3.28;;;39.60;34.70;;;;;;6150665;28;20053;-81
2022/07/24 07:52:29;;;;;;;5.85;2.92;;;37.60;37.20;;;;;;6211706;28;20236;-79
2022/07/24 07:55:32;;;;;;;8.88;3.40;;;36.10;38.50;;;;;;6215974;28;20511;-78
2022/07/24 07:58:34;;;;;;;7.50;3.40;;;34.90;40.50;;;;;;6208672;28;20046;-79
2022/07/24 08:01:36;;;;;;;6.35;2.90;;;33.90;42.10;;;;;;6232148;28;20048;-77
2022/07/24 08:04:37;;;;;;;7.75;4.00;;;33.30;43.40;;;;;;6231989;28;20050;-79
2022/07/24 08:07:39;;;;;;;7.35;3.90;;;32.90;43.80;;;;;;6230679;28;20058;-79
2022/07/24 08:10:42;;;;;;;6.35;3.55;;;32.50;44.70;;;;;;6229963;28;20058;-78
2022/07/24 08:13:44;;;;;;;10.73;3.45;;;32.40;45.40;;;;;;6229385;28;20052;-79
2022/07/24 08:16:46;;;;;;;4.57;3.25;;;32.40;45.80;;;;;;6234017;28;20060;-79
2022/07/24 08:19:48;;;;;;;5.50;3.65;;;32.30;46.00;;;;;;6233880;28;20056;-77
2022/07/24 08:22:49;;;;;;;4.68;3.15;;;32.30;46.10;;;;;;6225681;28;20054;-79
2022/07/24 08:25:53;;;;;;;4.60;3.72;;;32.30;46.70;;;;;;6215446;28;20053;-78
2022/07/24 08:28:55;;;;;;;9.55;3.67;;;32.20;46.80;;;;;;6206715;28;20515;-79
2022/07/24 08:31:57;;;;;;;5.38;3.58;;;32.30;46.90;;;;;;6210714;28;20141;-79
2022/07/24 08:34:58;;;;;;;5.90;3.47;;;32.30;46.70;;;;;;6211662;28;20113;-79
2022/07/24 08:38:01;;;;;;;6.38;3.63;;;32.50;46.90;;;;;;6203917;28;20058;-79
2022/07/24 08:41:05;;;;;;;4.18;3.25;;;32.60;46.70;;;;;;6205536;28;20046;-78
2022/07/24 08:44:07;;;;;;;4.80;3.95;;;32.60;46.20;;;;;;6198905;28;20046;-78
2022/07/24 08:47:09;;;;;;;5.43;3.00;;;32.40;46.50;;;;;;6206392;28;20060;-79
2022/07/24 08:50:11;;;;;;;4.30;3.13;;;32.40;46.40;;;;;;6205987;28;20050;-79
2022/07/24 08:53:13;;;;;;;5.35;3.35;;;32.60;46.30;;;;;;6215290;28;20050;-79
2022/07/24 08:56:16;;;;;;;3.75;3.03;;;32.60;46.40;;;;;;6225813;28;20068;-79
2022/07/24 08:59:20;;;;;;;6.60;3.80;;;32.90;45.90;;;;;;6232793;28;20388;-79
2022/07/24 09:02:22;;;;;;;5.13;3.13;;;33.10;45.60;;;;;;6235769;28;20057;-79
2022/07/24 09:05:23;;;;;;;4.70;2.78;;;33.30;45.20;;;;;;6233137;28;20041;-79
2022/07/24 09:08:25;;;;;;;5.10;3.53;;;33.40;45.00;;;;;;6234608;28;20411;-79
2022/07/24 09:11:29;;;;;;;5.05;3.33;;;33.40;45.10;;;;;;6235238;28;20060;-79
2022/07/24 09:14:32;;;;;;;5.15;3.10;;;33.60;45.00;;;;;;6234795;28;20053;-79
2022/07/24 09:17:33;;;;;;;5.70;3.00;;;33.80;44.60;;;;;;6239038;28;20136;-79
2022/07/24 09:20:39;;;;;;;4.95;2.60;;;33.80;44.60;;;;;;6237929;28;20104;-79
2022/07/24 09:23:42;;;;;;;6.57;2.38;;;34.10;43.90;;;;;;6224305;28;20569;-79
2022/07/24 09:26:49;;;;;;;4.32;2.75;;;34.10;44.20;;;;;;6160684;28;20047;-78
2022/07/24 09:29:51;;;;;;;;;;;34.30;43.20;;;;;;6160196;28;20134;-79
2022/07/24 09:32:54;;;;;;;5.88;3.13;;;34.50;42.80;;;;;;6159725;28;19922;-79
2022/07/24 09:35:57;;;;;;;3.75;2.90;;;34.60;42.10;;;;;;6176453;28;20050;-80
2022/07/24 09:38:59;;;;;;;3.33;2.70;;;34.60;41.80;;;;;;6178105;28;20424;-79
2022/07/24 09:42:04;;;;;;;4.05;2.53;;;34.70;41.50;;;;;;6164719;28;20079;-78
2022/07/24 09:45:10;;;;;;;4.70;3.00;;;34.90;41.10;;;;;;6196261;28;20053;-80
2022/07/24 09:48:12;;;;;;;3.45;2.25;;;35.00;40.30;;;;;;6211083;28;20054;-79
2022/07/24 09:51:15;;;;;;;5.82;2.35;;;35.10;39.30;;;;;;6209381;28;20143;-79
2022/07/24 09:54:31;;;;;;;5.07;2.65;;;35.30;39.80;;;;;;6205002;28;20050;-82
2022/07/24 09:57:35;;;;;;;5.50;2.60;;;35.30;39.70;;;;;;6208350;28;20458;-79
2022/07/24 10:00:38;;;;;;;3.95;2.40;;;35.40;39.70;;;;;;6209697;28;20050;-79
2022/07/24 10:03:54;;;;;;;5.32;2.65;;;35.60;39.10;;;;;;6207762;28;20054;-79
2022/07/24 10:06:56;;;;;;;3.55;2.40;;;35.70;39.20;;;;;;6197542;28;20596;-79
2022/07/24 10:10:00;;;;;;;4.13;2.55;;;36.00;38.90;;;;;;6206061;28;20046;-79
2022/07/24 10:13:05;;;;;;;3.10;2.33;;;36.90;38.40;;;;;;6202880;28;20154;-79
2022/07/24 10:16:41;;;;;;;3.05;2.40;;;38.10;36.80;;;;;;6207445;28;20050;-79
2022/07/24 10:19:45;;;;;;;3.63;2.50;;;38.80;34.50;;;;;;6202666;28;20128;-79
2022/07/24 10:23:01;;;;;;;3.22;2.40;;;38.60;34.90;;;;;;6208280;28;20061;-79
2022/07/24 10:26:06;;;;;;;4.28;2.22;;;38.10;35.40;;;;;;6203070;28;20416;-78
2022/07/24 10:29:11;;;;;;;3.58;2.60;;;37.60;35.10;;;;;;6207101;28;20054;-79
2022/07/24 10:32:13;;;;;;;6.40;2.20;;;37.30;36.00;;;;;;6207958;28;20586;-78
2022/07/24 10:35:18;;;;;;;3.72;1.88;;;37.10;35.90;;;;;;6200336;28;20054;-79
2022/07/24 10:38:29;;;;;;;4.78;2.17;;;37.00;35.20;;;;;;6207383;28;20077;-79
2022/07/24 10:41:31;;;;;;;3.88;2.38;;;37.00;34.80;;;;;;6207306;28;20050;-79
2022/07/24 10:44:34;;;;;;;3.22;2.00;;;37.00;35.50;;;;;;6207858;28;20050;-79
2022/07/24 10:47:36;;;;;;;3.75;1.35;;;37.00;35.50;;;;;;6202392;28;20106;-79
2022/07/24 10:51:09;;;;;;;3.72;2.03;;;37.10;35.40;;;;;;6177525;28;20053;-79
2022/07/24 10:54:19;;;;;;;3.45;1.90;;;37.30;35.10;;;;;;6182103;28;20057;-80
2022/07/24 10:57:46;;;;;;;5.43;1.77;;;37.40;34.20;;;;;;6182604;28;20051;-79
2022/07/24 11:00:51;;;;;;;4.05;2.42;;;37.50;34.20;;;;;;6182878;28;20053;-79
2022/07/24 11:03:53;;;;;;;3.35;1.90;;;37.70;33.50;;;;;;6182420;28;20055;-79
2022/07/24 11:06:56;;;;;;;9.45;1.88;;;37.90;32.80;;;;;;6180236;28;20059;-79
2022/07/24 11:10:01;;;;;;;2.53;1.80;;;37.90;32.90;;;;;;6180077;28;20591;-79
2022/07/24 11:13:02;;;;;;;4.20;1.90;;;38.10;32.70;;;;;;6179381;28;20463;-79
2022/07/24 11:16:25;;;;;;;2.40;1.77;;;38.20;32.90;;;;;;6180308;28;20050;-79
2022/07/24 11:19:31;;;;;;;2.15;1.40;;;38.40;32.10;;;;;;6181243;28;20424;-79
2022/07/24 11:22:41;;;;;;;8.43;1.50;;;38.40;32.00;;;;;;6191737;28;20058;-78
2022/07/24 11:25:43;;;;;;;3.38;1.83;;;38.40;31.80;;;;;;6179037;28;20065;-78
2022/07/24 11:29:10;;;;;;;4.35;1.73;;;38.40;32.00;;;;;;6197574;28;20060;-79
2022/07/24 11:32:17;;;;;;;4.15;1.50;;;38.60;32.00;;;;;;6225431;28;20066;-79
2022/07/24 11:35:27;;;;;;;;;;;38.80;31.60;;;;;;6225261;28;20117;-78
2022/07/24 11:38:29;;;;;;;4.22;1.73;;;39.10;31.20;;;;;;6226255;28;19936;-78
2022/07/24 11:41:45;;;;;;;3.38;1.38;;;39.30;30.50;;;;;;6225052;28;20058;-78
2022/07/24 11:44:49;;;;;;;2.63;1.40;;;39.50;30.70;;;;;;6225418;28;20046;-78
2022/07/24 11:47:54;;;;;;;2.13;1.52;;;39.80;30.90;;;;;;6206131;28;20589;-80
2022/07/24 11:51:04;;;;;;;5.60;1.65;;;39.90;30.50;;;;;;6237222;23;20050;-83
2022/07/24 11:54:06;;;;;;;3.83;1.70;;;40.00;30.30;;;;;;6212643;28;20066;-83
2022/07/24 11:57:17;;;;;;;3.83;1.90;;;40.10;30.10;;;;;;6215269;28;20507;-81
2022/07/24 12:00:22;;;;;;;3.85;1.60;;;40.10;30.00;;;;;;6213983;28;20050;-81
2022/07/24 12:03:27;;;;;;;3.42;1.30;;;40.20;30.10;;;;;;6214013;28;20064;-82
2022/07/24 12:06:29;;;;;;;11.68;1.88;;;40.30;30.00;;;;;;6212957;28;20156;-82
2022/07/24 12:09:31;;;;;;;2.65;1.55;;;40.50;30.00;;;;;;6213074;28;20057;-81
2022/07/24 12:12:35;;;;;;;3.78;1.70;;;40.70;29.80;;;;;;6213212;28;20058;-81
2022/07/24 12:15:39;;;;;;;2.47;1.40;;;40.60;30.10;;;;;;6212836;28;20110;-82
2022/07/24 12:18:43;;;;;;;3.60;1.40;;;40.70;29.90;;;;;;6213136;28;20411;-82
2022/07/24 12:21:46;;;;;;;8.57;1.83;;;40.70;30.10;;;;;;6212642;28;20118;-81
2022/07/24 12:24:49;;;;;;;3.17;1.52;;;40.60;30.20;;;;;;6212003;28;20056;-82
2022/07/24 12:27:52;;;;;;;2.85;2.00;;;40.70;30.00;;;;;;6213842;28;20064;-81
2022/07/24 12:30:55;;;;;;;2.45;1.35;;;40.90;30.00;;;;;;6236548;28;20336;-81
2022/07/24 12:34:00;;;;;;;2.30;1.58;;;41.00;29.70;;;;;;6235294;28;20547;-81
2022/07/24 12:37:14;;;;;;;3.83;1.40;;;41.20;29.70;;;;;;6236891;28;20079;-82
2022/07/24 12:40:24;;;;;;;3.90;1.33;;;41.10;29.60;;;;;;6236995;28;20137;-82
2022/07/24 12:43:28;;;;;;;1.85;1.20;;;41.10;30.10;;;;;;6236407;28;20054;-82
2022/07/24 12:46:32;;;;;;;2.58;1.50;;;41.20;29.60;;;;;;6232491;28;20042;-82
2022/07/24 12:49:43;;;;;;;2.38;1.30;;;41.30;29.60;;;;;;6228237;28;20052;-82
2022/07/24 12:52:51;;;;;;;1.63;1.38;;;40.80;29.40;;;;;;6225446;28;20129;-81
2022/07/24 12:56:05;;;;;;;2.45;1.65;;;40.10;30.20;;;;;;6213282;28;20054;-81
2022/07/24 12:59:07;;;;;;;6.32;1.48;;;40.40;30.00;;;;;;6235776;28;20119;-82
2022/07/24 13:02:10;;;;;;;2.85;1.55;;;40.70;30.00;;;;;;6236149;28;20136;-82
2022/07/24 13:05:13;;;;;;;2.10;1.10;;;40.90;29.70;;;;;;6236585;28;20041;-81
2022/07/24 13:08:15;;;;;;;3.55;1.50;;;41.00;29.70;;;;;;6237093;28;20122;-81
2022/07/24 13:11:17;;;;;;;4.45;1.63;;;41.20;29.60;;;;;;6234037;28;20052;-83
2022/07/24 13:14:21;;;;;;;1.60;1.25;;;41.20;29.60;;;;;;6235534;28;20056;-82
2022/07/24 13:17:23;;;;;;;2.67;1.50;;;41.30;29.60;;;;;;6236846;28;20027;-81
2022/07/24 13:20:26;;;;;;;1.63;1.13;;;41.40;29.50;;;;;;6236514;28;20049;-81
2022/07/24 13:23:28;;;;;;;1.85;1.20;;;41.40;29.50;;;;;;6228025;28;20050;-82
2022/07/24 13:26:30;;;;;;;2.22;1.35;;;41.30;29.60;;;;;;6211363;28;20053;-82
2022/07/24 13:29:34;;;;;;;3.17;1.42;;;41.20;29.80;;;;;;6226947;28;20046;-82
2022/07/24 13:32:36;;;;;;;4.18;1.50;;;41.10;29.70;;;;;;6236159;28;20077;-82
2022/07/24 13:35:39;;;;;;;6.53;1.50;;;41.20;29.80;;;;;;6236228;28;20054;-82
2022/07/24 13:38:41;;;;;;;3.17;1.42;;;41.30;29.60;;;;;;6235027;28;20104;-82
2022/07/24 13:41:42;;;;;;;4.45;1.55;;;41.40;29.60;;;;;;6236364;28;20129;-81
2022/07/24 13:44:44;;;;;;;1.83;1.50;;;41.40;29.70;;;;;;6233802;28;20634;-82
2022/07/24 13:47:46;;;;;;;1.20;1.10;;;41.50;29.60;;;;;;6228814;28;20048;-80
2022/07/24 13:50:49;;;;;;;3.60;1.80;;;41.60;29.60;;;;;;6226024;28;20418;-82
2022/07/24 13:53:51;;;;;;;5.05;1.55;;;41.50;29.50;;;;;;6213162;28;20064;-82
2022/07/24 13:56:53;;;;;;;2.58;1.42;;;41.50;29.60;;;;;;6218649;28;20038;-82
2022/07/24 13:59:55;;;;;;;1.70;1.20;;;41.50;29.50;;;;;;6233086;28;20038;-81
2022/07/24 14:02:56;;;;;;;3.42;1.58;;;41.30;29.60;;;;;;6234159;28;20056;-83
2022/07/24 14:06:00;;;;;;;2.67;1.88;;;41.20;29.80;;;;;;6225428;28;20054;-81
2022/07/24 14:09:03;;;;;;;3.00;1.52;;;41.20;29.90;;;;;;6208813;28;20047;-82
2022/07/24 14:12:05;;;;;;;5.43;1.83;;;41.30;30.00;;;;;;6210960;28;20050;-81
2022/07/24 14:15:08;;;;;;;3.70;2.08;;;41.30;29.80;;;;;;6210517;28;20100;-81
2022/07/24 14:18:10;;;;;;;1.95;1.42;;;41.30;30.00;;;;;;6206179;28;20467;-82
2022/07/24 14:21:13;;;;;;;2.67;1.30;;;41.40;29.90;;;;;;6204372;28;20061;-83
2022/07/24 14:24:16;;;;;;;3.63;1.67;;;41.40;29.80;;;;;;6205742;28;20046;-83
2022/07/24 14:27:17;;;;;;;4.60;1.90;;;41.40;29.70;;;;;;6212133;28;20038;-82
2022/07/24 14:30:19;;;;;;;2.40;1.13;;;41.30;29.80;;;;;;6235938;28;20046;-82
2022/07/24 14:33:21;;;;;;;5.22;1.83;;;41.20;29.60;;;;;;6239539;28;20053;-81
2022/07/24 14:36:24;;;;;;;3.08;1.52;;;41.00;29.80;;;;;;6237344;28;20050;-83
2022/07/24 14:39:27;;;;;;;2.30;1.65;;;40.90;29.80;;;;;;6233896;28;20129;-81
2022/07/24 14:42:29;;;;;;;3.42;1.33;;;41.00;29.90;;;;;;6219437;28;20073;-82
2022/07/24 14:45:30;;;;;;;1.77;1.40;;;41.20;29.90;;;;;;6213194;28;20046;-82
2022/07/24 14:48:32;;;;;;;2.38;1.45;;;41.20;30.00;;;;;;6217497;28;20054;-81
2022/07/24 14:51:35;;;;;;;2.03;1.45;;;41.20;29.80;;;;;;6230513;28;20137;-82
2022/07/24 14:54:37;;;;;;;3.72;1.55;;;41.10;30.00;;;;;;6210143;28;20046;-82
2022/07/24 14:57:39;;;;;;;3.33;1.17;;;41.20;30.00;;;;;;6228741;28;20053;-82
2022/07/24 15:00:40;;;;;;;2.75;1.67;;;41.20;30.00;;;;;;6236908;28;20052;-82
2022/07/24 15:03:42;;;;;;;3.85;1.58;;;41.20;30.00;;;;;;6237239;28;20054;-82
2022/07/24 15:06:45;;;;;;;4.40;2.30;;;41.30;30.00;;;;;;6237754;28;20140;-82
2022/07/24 15:09:47;;;;;;;2.10;1.55;;;41.30;29.90;;;;;;6236635;28;20042;-82
2022/07/24 15:12:49;;;;;;;2.88;1.45;;;41.30;29.90;;;;;;6236094;28;20056;-82
2022/07/24 15:15:51;;;;;;;4.05;1.85;;;41.40;29.80;;;;;;6236399;28;20054;-82
2022/07/24 15:18:52;;;;;;;5.97;1.63;;;41.40;30.00;;;;;;6238378;28;20054;-82
2022/07/24 15:21:56;;;;;;;2.80;1.50;;;41.20;30.00;;;;;;6235081;28;20060;-82
2022/07/24 15:24:58;;;;;;;2.95;1.40;;;40.90;30.10;;;;;;6221047;28;20042;-82
2022/07/24 15:28:00;;;;;;;2.97;1.55;;;41.00;30.00;;;;;;6213717;28;20042;-82
2022/07/24 15:31:01;;;;;;;6.00;1.75;;;41.00;30.00;;;;;;6213562;28;20078;-82
2022/07/24 15:34:03;;;;;;;6.75;1.48;;;41.20;30.10;;;;;;6214029;28;20125;-82
2022/07/24 15:37:06;;;;;;;2.28;1.70;;;41.20;30.00;;;;;;6213377;28;20066;-82
2022/07/24 15:40:09;;;;;;;6.45;1.80;;;40.80;30.20;;;;;;6213382;28;20054;-83
2022/07/24 15:43:11;;;;;;;3.13;1.70;;;40.50;30.40;;;;;;6216246;28;20053;-82
2022/07/24 15:46:13;;;;;;;2.10;1.60;;;40.40;30.50;;;;;;6214195;28;20052;-82
2022/07/24 15:49:15;;;;;;;2.65;1.40;;;40.40;30.50;;;;;;6218209;28;20052;-82
2022/07/24 15:52:18;;;;;;;4.13;1.48;;;40.30;30.40;;;;;;6219525;28;20057;-82
2022/07/24 15:55:20;;;;;;;2.00;1.58;;;40.40;30.20;;;;;;6214995;28;20050;-83